createdAt,value
2018-07-12T00:01:16.882Z,1.7
2018-07-12T00:04:16.878Z,1.6
2018-07-12T00:07:16.774Z,1.6
2018-07-12T00:10:16.780Z,2.5
2018-07-12T00:13:16.909Z,1.7
2018-07-12T00:16:16.653Z,1.6
2018-07-12T00:19:16.862Z,2.1
2018-07-12T00:22:16.862Z,1.8
2018-07-12T00:25:16.706Z,1.7
2018-07-12T00:28:16.932Z,1.7
2018-07-12T00:31:16.795Z,1.8
2018-07-12T00:34:16.717Z,1.6
2018-07-12T00:37:17.089Z,2.7
2018-07-12T00:40:16.760Z,1.8
2018-07-12T00:43:16.959Z,2.8
2018-07-12T00:46:16.751Z,1.7
2018-07-12T00:49:16.870Z,1.7
2018-07-12T00:52:16.919Z,1.7
2018-07-12T00:55:16.935Z,1.7
2018-07-12T00:58:16.775Z,1.8
2018-07-12T01:01:16.946Z,1.8
2018-07-12T01:04:16.865Z,1.8
2018-07-12T01:07:16.952Z,1.8
2018-07-12T01:10:16.713Z,1.6
2018-07-12T01:13:16.644Z,1.8
2018-07-12T01:16:16.827Z,1.9
2018-07-12T01:19:16.933Z,1.9
2018-07-12T01:22:16.913Z,2.2
2018-07-12T01:25:16.858Z,1.8
2018-07-12T01:28:16.961Z,1.7
2018-07-12T01:31:16.986Z,1.8
2018-07-12T01:34:16.861Z,1.7
2018-07-12T01:37:16.782Z,1.8
2018-07-12T01:40:16.836Z,1.7
2018-07-12T01:43:16.897Z,1.7
2018-07-12T01:46:16.790Z,1.8
2018-07-12T01:49:16.755Z,1.7
2018-07-12T01:52:16.857Z,2.1
2018-07-12T01:55:16.817Z,1.7
2018-07-12T01:58:16.920Z,2.5
2018-07-12T02:01:17.016Z,2.5
2018-07-12T02:04:16.833Z,2.1
2018-07-12T02:07:16.953Z,1.8
2018-07-12T02:10:17.075Z,1.9
2018-07-12T02:13:16.922Z,1.9
2018-07-12T02:16:16.924Z,1.7
2018-07-12T02:19:16.816Z,1.8
2018-07-12T02:22:16.952Z,1.6
2018-07-12T02:25:16.875Z,1.8
2018-07-12T02:28:16.901Z,1.8
2018-07-12T02:31:17.391Z,2.1
2018-07-12T02:34:17.640Z,1.8
2018-07-12T02:37:17.478Z,1.7
2018-07-12T02:40:17.519Z,1.7
2018-07-12T02:43:17.427Z,1.9
2018-07-12T02:46:17.413Z,1.7
2018-07-12T02:49:17.496Z,1.7
2018-07-12T02:52:17.378Z,1.9
2018-07-12T02:55:17.513Z,2.7
2018-07-12T02:58:17.529Z,1.7
2018-07-12T03:01:17.538Z,1.6
2018-07-12T03:04:17.406Z,1.8
2018-07-12T03:07:17.416Z,1.8
2018-07-12T03:10:17.582Z,1.8
2018-07-12T03:13:17.508Z,1.8
2018-07-12T03:16:17.527Z,1.7
2018-07-12T03:19:17.560Z,1.7
2018-07-12T03:22:17.631Z,1.8
2018-07-12T03:25:17.556Z,2.3
2018-07-12T03:28:17.472Z,1.8
2018-07-12T03:31:17.309Z,1.7
2018-07-12T03:34:18.715Z,1.7
2018-07-12T03:37:17.634Z,1.7
2018-07-12T03:40:19.161Z,1.8
2018-07-12T03:43:17.172Z,1.9
2018-07-12T03:46:17.547Z,1.8
2018-07-12T03:49:17.374Z,1.9
2018-07-12T03:52:17.518Z,1.8
2018-07-12T03:55:17.468Z,1.8
2018-07-12T03:58:18.825Z,1.7
2018-07-12T04:01:17.217Z,1.8
2018-07-12T04:04:17.606Z,1.8
2018-07-12T04:07:17.204Z,1.7
2018-07-12T04:10:17.276Z,1.7
2018-07-12T04:13:17.526Z,1.9
2018-07-12T04:16:18.348Z,1.9
2018-07-12T04:19:17.476Z,1.8
2018-07-12T04:22:18.877Z,1.7
2018-07-12T04:25:17.322Z,1.7
2018-07-12T04:28:17.606Z,1.8
2018-07-12T04:31:17.007Z,2
2018-07-12T04:34:17.689Z,1.8
2018-07-12T04:37:17.041Z,1.8
2018-07-12T04:40:16.684Z,1.8
2018-07-12T04:43:16.779Z,1.8
2018-07-12T04:46:16.878Z,1.7
2018-07-12T04:49:16.894Z,1.8
2018-07-12T04:52:16.799Z,1.7
2018-07-12T04:55:16.867Z,1.7
2018-07-12T04:58:17.967Z,1.8
2018-07-12T05:01:16.801Z,1.7
2018-07-12T05:04:16.768Z,1.8
2018-07-12T05:07:16.759Z,2.2
2018-07-12T05:10:16.761Z,1.8
2018-07-12T05:13:16.620Z,1.8
2018-07-12T05:16:17.816Z,1.8
2018-07-12T05:19:16.900Z,2.3
2018-07-12T05:22:16.777Z,1.8
2018-07-12T05:25:16.804Z,1.7
2018-07-12T05:28:17.388Z,1.8
2018-07-12T05:31:19.399Z,1.9
2018-07-12T05:34:17.068Z,1.8
2018-07-12T05:37:17.084Z,2.1
2018-07-12T05:40:17.139Z,1.9
2018-07-12T05:43:17.355Z,1.8
2018-07-12T05:46:17.122Z,1.8
2018-07-12T05:49:17.126Z,1.9
2018-07-12T05:52:17.696Z,1.8
2018-07-12T05:55:17.067Z,1.9
2018-07-12T05:58:17.057Z,1.8
2018-07-12T06:01:17.369Z,1.8
2018-07-12T06:04:19.726Z,2
2018-07-12T06:07:17.076Z,1.8
2018-07-12T06:10:17.151Z,1.8
2018-07-12T06:13:17.840Z,1.9
2018-07-12T06:16:17.367Z,1.8
2018-07-12T06:19:17.075Z,1.8
2018-07-12T06:22:17.202Z,1.8
2018-07-12T06:25:17.166Z,1.8
2018-07-12T06:28:17.083Z,1.9
2018-07-12T06:31:16.722Z,1.8
2018-07-12T06:34:16.665Z,1.7
2018-07-12T06:37:18.050Z,1.8
2018-07-12T06:40:16.859Z,1.7
2018-07-12T06:43:16.711Z,1.7
2018-07-12T06:46:16.856Z,1.7
2018-07-12T06:49:16.625Z,1.8
2018-07-12T06:52:16.833Z,2
2018-07-12T06:55:16.697Z,1.7
2018-07-12T06:58:32.965Z,1.8
2018-07-12T07:01:16.837Z,1.8
2018-07-12T07:04:16.663Z,1.7
2018-07-12T07:07:16.776Z,1.8
2018-07-12T07:10:16.880Z,1.8
2018-07-12T07:13:17.709Z,1.8
2018-07-12T07:16:16.772Z,1.9
2018-07-12T07:19:16.765Z,1.8
2018-07-12T07:22:16.621Z,2.7
2018-07-12T07:25:16.841Z,2.5
2018-07-12T07:28:16.675Z,2
2018-07-12T07:31:16.726Z,2.5
2018-07-12T07:34:16.691Z,2.7
2018-07-12T07:37:16.851Z,2.2
2018-07-12T07:40:16.569Z,3.1
2018-07-12T07:43:17.883Z,2.7
2018-07-12T07:46:16.725Z,5.2
2018-07-12T07:49:17.654Z,2.6
2018-07-12T07:52:16.824Z,2.5
2018-07-12T07:55:16.751Z,3
2018-07-12T07:58:16.667Z,2.1
2018-07-12T08:01:16.762Z,2.2
2018-07-12T08:04:16.773Z,3.3
2018-07-12T08:07:16.800Z,1.9
2018-07-12T08:10:16.840Z,2.1
2018-07-12T08:13:16.886Z,3.1
2018-07-12T08:16:18.312Z,2.6
2018-07-12T08:19:16.824Z,2.2
2018-07-12T08:22:16.613Z,3
2018-07-12T08:25:16.848Z,2.2
2018-07-12T08:28:16.993Z,2.6
2018-07-12T08:31:18.361Z,2.4
2018-07-12T08:34:16.784Z,2.4
2018-07-12T08:37:16.614Z,2.3
2018-07-12T08:40:16.670Z,2.1
2018-07-12T08:43:17.100Z,1.9
2018-07-12T08:46:17.519Z,2.5
2018-07-12T08:49:16.557Z,1.9
2018-07-12T08:52:16.570Z,2.6
2018-07-12T08:55:16.900Z,2
2018-07-12T08:58:16.943Z,2.4
2018-07-12T09:01:16.789Z,2.3
2018-07-12T09:04:16.903Z,2.1
2018-07-12T09:07:16.791Z,2.1
2018-07-12T09:10:16.829Z,2.1
2018-07-12T09:13:16.602Z,2.3
2018-07-12T09:16:16.627Z,1.9
2018-07-12T09:19:16.663Z,2.1
2018-07-12T09:22:16.584Z,2.1
2018-07-12T09:25:16.655Z,2
2018-07-12T09:28:16.680Z,2
2018-07-12T09:31:16.637Z,1.9
2018-07-12T09:34:16.900Z,1.9
2018-07-12T09:37:16.895Z,2.2
2018-07-12T09:40:16.762Z,2
2018-07-12T09:43:16.835Z,2
2018-07-12T09:46:16.798Z,2
2018-07-12T09:49:18.414Z,1.9
2018-07-12T09:52:16.879Z,1.9
2018-07-12T09:55:16.602Z,2
2018-07-12T09:58:16.911Z,2
2018-07-12T10:01:17.511Z,2
2018-07-12T10:04:16.888Z,1.9
2018-07-12T10:07:16.539Z,2.3
2018-07-12T10:10:16.817Z,2
2018-07-12T10:13:16.630Z,2.2
2018-07-12T10:16:16.678Z,1.9
2018-07-12T10:19:16.804Z,1.9
2018-07-12T10:22:16.920Z,2.1
2018-07-12T10:25:16.711Z,2
2018-07-12T10:28:16.828Z,2
2018-07-12T10:31:16.599Z,2
2018-07-12T10:34:16.546Z,1.9
2018-07-12T10:37:16.757Z,1.9
2018-07-12T10:40:16.721Z,2.1
2018-07-12T10:43:16.620Z,1.9
2018-07-12T10:46:16.784Z,2
2018-07-12T10:49:16.782Z,2
2018-07-12T10:52:16.638Z,1.9
2018-07-12T10:55:16.965Z,1.9
2018-07-12T10:58:16.852Z,1.9
2018-07-12T11:01:16.810Z,1.9
2018-07-12T11:04:16.941Z,1.8
2018-07-12T11:07:17.086Z,1.9
2018-07-12T11:10:16.845Z,2
2018-07-12T11:13:16.928Z,1.9
2018-07-12T11:16:16.712Z,1.8
2018-07-12T11:19:16.626Z,1.8
2018-07-12T11:22:17.072Z,2
2018-07-12T11:25:16.809Z,1.9
2018-07-12T11:28:17.211Z,1.9
2018-07-12T11:31:16.559Z,1.9
2018-07-12T11:34:17.023Z,3.1
2018-07-12T11:37:16.708Z,12.2
2018-07-12T11:40:17.056Z,7.4
2018-07-12T11:43:16.835Z,3.4
2018-07-12T11:46:16.567Z,7.3
2018-07-12T11:49:16.628Z,9.5
2018-07-12T11:52:16.599Z,7.2
2018-07-12T11:55:16.634Z,4.9
2018-07-12T11:58:16.777Z,4.7
2018-07-12T12:01:17.216Z,5.5
2018-07-12T12:04:17.177Z,7
2018-07-12T12:07:16.554Z,6.4
2018-07-12T12:10:16.870Z,12.5
2018-07-12T12:13:16.759Z,5.8
2018-07-12T12:16:16.690Z,7
2018-07-12T12:19:16.996Z,5.3
2018-07-12T12:22:16.899Z,6.9
2018-07-12T12:25:16.924Z,4
2018-07-12T12:28:17.046Z,8.3
2018-07-12T12:31:16.621Z,6.1
2018-07-12T12:34:16.703Z,4.5
2018-07-12T12:37:16.902Z,6.5
2018-07-12T12:40:16.839Z,4.9
2018-07-12T12:43:16.753Z,6.2
2018-07-12T12:46:16.563Z,5
2018-07-12T12:49:16.633Z,6.8
2018-07-12T12:52:16.505Z,4.7
2018-07-12T12:55:16.550Z,5.2
2018-07-12T12:58:16.717Z,3.8
2018-07-12T13:01:16.796Z,4.9
2018-07-12T13:04:16.630Z,4.5
2018-07-12T13:07:16.627Z,4.5
2018-07-12T13:10:16.761Z,4
2018-07-12T13:13:16.732Z,4.4
2018-07-12T13:16:16.763Z,3.4
2018-07-12T13:19:16.760Z,3.9
2018-07-12T13:22:16.727Z,3.2
2018-07-12T13:25:16.725Z,2.7
2018-07-12T13:28:16.591Z,6.3
2018-07-12T13:31:16.904Z,3.2
2018-07-12T13:34:16.869Z,2.6
2018-07-12T13:37:16.545Z,4
2018-07-12T13:40:16.650Z,5.7
2018-07-12T13:43:16.704Z,3
2018-07-12T13:46:16.815Z,4
2018-07-12T13:49:47.968Z,4.1
2018-07-12T13:52:18.106Z,3
2018-07-12T13:55:16.862Z,3.5
2018-07-12T13:58:16.926Z,3
2018-07-12T14:01:16.948Z,3.1
2018-07-12T14:04:16.607Z,2.6
2018-07-12T14:07:16.813Z,2.7
2018-07-12T14:10:16.703Z,3.2
2018-07-12T14:13:16.852Z,3.5
2018-07-12T14:16:16.746Z,2.8
2018-07-12T14:19:16.550Z,2.8
2018-07-12T14:22:16.731Z,3.4
2018-07-12T14:25:16.644Z,2.4
2018-07-12T14:28:16.509Z,3.8
2018-07-12T14:31:16.653Z,2.5
2018-07-12T14:34:16.658Z,2.7
2018-07-12T14:37:16.574Z,2.3
2018-07-12T14:40:16.633Z,2.9
2018-07-12T14:43:16.695Z,2.4
2018-07-12T14:46:16.678Z,3.8
2018-07-12T14:49:16.545Z,2.2
2018-07-12T14:52:16.948Z,5.4
2018-07-12T14:55:16.624Z,2.3
2018-07-12T14:58:16.745Z,2.8
2018-07-12T15:01:16.704Z,2.4
2018-07-12T15:04:16.687Z,2.2
2018-07-12T15:07:16.979Z,3.5
2018-07-12T15:10:16.744Z,2.6
2018-07-12T15:13:16.675Z,2.3
2018-07-12T15:16:16.682Z,2.5
2018-07-12T15:19:17.362Z,2.2
2018-07-12T15:22:16.839Z,2.9
2018-07-12T15:25:16.631Z,3.4
2018-07-12T15:28:16.557Z,2.9
2018-07-12T15:31:16.917Z,2.2
2018-07-12T15:34:16.667Z,2.7
2018-07-12T15:37:16.764Z,2.9
2018-07-12T15:40:16.669Z,2.4
2018-07-12T15:43:16.591Z,2.1
2018-07-12T15:46:16.753Z,3.3
2018-07-12T15:49:16.720Z,2.1
2018-07-12T15:52:16.672Z,2.6
2018-07-12T15:55:16.775Z,2.6
2018-07-12T15:58:16.656Z,2.4
2018-07-12T16:01:16.545Z,2.2
2018-07-12T16:04:16.958Z,2.2
2018-07-12T16:07:16.735Z,2.2
2018-07-12T16:10:16.641Z,2
2018-07-12T16:13:16.764Z,2.3
2018-07-12T16:16:16.597Z,2.3
2018-07-12T16:19:16.797Z,2.2
2018-07-12T16:22:17.009Z,2.4
2018-07-12T16:25:16.869Z,3.2
2018-07-12T16:28:16.668Z,2.5
2018-07-12T16:31:16.814Z,2.4
2018-07-12T16:34:17.251Z,1.9
2018-07-12T16:37:17.139Z,2.4
2018-07-12T16:40:16.634Z,2.3
2018-07-12T16:43:17.074Z,1.9
2018-07-12T16:46:16.618Z,4.9
2018-07-12T16:49:16.607Z,7.4
2018-07-12T16:52:16.841Z,6.5
2018-07-12T16:55:16.521Z,10.4
2018-07-12T16:58:16.759Z,4.9
2018-07-12T17:01:16.551Z,5.2
2018-07-12T17:04:17.014Z,7.8
2018-07-12T17:07:17.352Z,9.3
2018-07-12T17:10:16.786Z,4.6
2018-07-12T17:13:16.664Z,6.6
2018-07-12T17:16:16.691Z,5.4
2018-07-12T17:19:16.649Z,5.6
2018-07-12T17:22:16.752Z,2.8
2018-07-12T17:25:16.862Z,4.3
2018-07-12T17:28:16.700Z,9.9
2018-07-12T17:31:16.827Z,4.7
2018-07-12T17:34:16.718Z,3.6
2018-07-12T17:37:16.748Z,3.4
2018-07-12T17:40:16.731Z,2.3
2018-07-12T17:43:16.861Z,2.9
2018-07-12T17:46:16.672Z,4.1
2018-07-12T17:49:16.718Z,5.5
2018-07-12T17:52:16.846Z,2.6
2018-07-12T17:55:16.472Z,4.2
2018-07-12T17:58:16.812Z,2.5
2018-07-12T18:01:16.728Z,4.3
2018-07-12T18:04:16.576Z,3
2018-07-12T18:07:16.565Z,3.1
2018-07-12T18:10:17.381Z,3.6
2018-07-12T18:13:16.457Z,2.1
2018-07-12T18:16:16.789Z,2.7
2018-07-12T18:19:16.594Z,2.9
2018-07-12T18:22:17.850Z,3.2
2018-07-12T18:25:16.634Z,2.2
2018-07-12T18:28:16.794Z,4
2018-07-12T18:31:16.770Z,2.5
2018-07-12T18:34:16.658Z,2
2018-07-12T18:37:16.706Z,2.1
2018-07-12T18:40:16.765Z,4.1
2018-07-12T18:43:16.821Z,2.5
2018-07-12T18:46:16.675Z,2.1
2018-07-12T18:49:16.623Z,2.1
2018-07-12T18:52:16.628Z,2.5
2018-07-12T18:55:16.907Z,2.7
2018-07-12T18:58:16.660Z,2.2
2018-07-12T19:01:16.600Z,2
2018-07-12T19:04:16.639Z,2.5
2018-07-12T19:07:16.864Z,2.3
2018-07-12T19:10:16.503Z,3.3
2018-07-12T19:13:16.697Z,4.1
2018-07-12T19:16:16.680Z,4
2018-07-12T19:19:16.697Z,4.2
2018-07-12T19:22:16.532Z,5.4
2018-07-12T19:25:16.427Z,3.4
2018-07-12T19:28:16.507Z,5.1
2018-07-12T19:31:16.607Z,3.8
2018-07-12T19:34:17.244Z,2.9
2018-07-12T19:37:16.624Z,4
2018-07-12T19:40:16.443Z,5.1
2018-07-12T19:43:16.859Z,4.9
2018-07-12T19:46:16.648Z,6.8
2018-07-12T19:49:16.629Z,4.6
2018-07-12T19:52:16.913Z,7.7
2018-07-12T19:55:16.693Z,7.3
2018-07-12T19:58:16.670Z,2.9
2018-07-12T20:01:16.606Z,4
2018-07-12T20:04:16.831Z,4.4
2018-07-12T20:07:16.676Z,3.3
2018-07-12T20:10:16.454Z,5.5
2018-07-12T20:13:16.689Z,3.1
2018-07-12T20:16:16.567Z,5.1
2018-07-12T20:19:16.532Z,4
2018-07-12T20:22:16.750Z,3.1
2018-07-12T20:25:17.194Z,2.8
2018-07-12T20:28:16.703Z,2.8
2018-07-12T20:31:17.219Z,3.1
2018-07-12T20:34:16.443Z,3.9
2018-07-12T20:37:16.799Z,3.3
2018-07-12T20:40:16.596Z,3.4
2018-07-12T20:43:16.515Z,2.5
2018-07-12T20:46:16.653Z,3.7
2018-07-12T20:49:16.438Z,2.4
2018-07-12T20:52:16.566Z,2.5
2018-07-12T20:55:17.833Z,3.4
2018-07-12T20:58:16.881Z,3.5
2018-07-12T21:01:16.571Z,2.3
2018-07-12T21:04:16.455Z,3.8
2018-07-12T21:07:16.946Z,2.9
2018-07-12T21:10:16.393Z,4.6
2018-07-12T21:13:16.589Z,3.6
2018-07-12T21:16:16.869Z,3
2018-07-12T21:19:16.549Z,2.3
2018-07-12T21:22:16.617Z,2.1
2018-07-12T21:25:16.678Z,2
2018-07-12T21:28:16.425Z,2.1
2018-07-12T21:31:16.614Z,2.9
2018-07-12T21:34:16.585Z,2.1
2018-07-12T21:37:16.480Z,2.5
2018-07-12T21:40:16.838Z,2.1
2018-07-12T21:43:16.423Z,1.9
2018-07-12T21:46:16.447Z,2.4
2018-07-12T21:49:16.634Z,2.3
2018-07-12T21:52:16.560Z,2.2
2018-07-12T21:55:16.591Z,2.7
2018-07-12T21:58:16.420Z,2
2018-07-12T22:01:16.641Z,2.2
2018-07-12T22:04:16.395Z,2.2
2018-07-12T22:07:16.472Z,2.3
2018-07-12T22:10:16.564Z,3.4
2018-07-12T22:13:16.662Z,2
2018-07-12T22:16:16.588Z,2.7
2018-07-12T22:19:16.388Z,2.4
2018-07-12T22:22:16.668Z,3.1
2018-07-12T22:25:16.600Z,2.1
2018-07-12T22:28:16.410Z,2
2018-07-12T22:31:16.538Z,2.1
2018-07-12T22:34:16.596Z,2
2018-07-12T22:37:16.518Z,3.8
2018-07-12T22:40:16.659Z,2.2
2018-07-12T22:43:16.383Z,2.1
2018-07-12T22:46:16.625Z,2.2
2018-07-12T22:49:16.537Z,2.2
2018-07-12T22:52:16.750Z,2.1
2018-07-12T22:55:16.565Z,2
2018-07-12T22:58:16.597Z,2.2
2018-07-12T23:01:16.603Z,2.1
2018-07-12T23:04:16.435Z,2
2018-07-12T23:07:16.577Z,2.1
2018-07-12T23:10:16.931Z,2
2018-07-12T23:13:16.527Z,3
2018-07-12T23:16:16.675Z,2.5
2018-07-12T23:19:16.520Z,2.1
2018-07-12T23:22:16.713Z,2.6
2018-07-12T23:25:16.523Z,2.8
2018-07-12T23:28:16.648Z,2
2018-07-12T23:31:17.155Z,2.3
2018-07-12T23:34:16.565Z,1.9
2018-07-12T23:37:16.502Z,2.2
2018-07-12T23:40:16.493Z,2.8
2018-07-12T23:43:16.566Z,2
2018-07-12T23:46:16.611Z,2.1
2018-07-12T23:49:16.493Z,2
2018-07-12T23:52:16.497Z,2.1
2018-07-12T23:55:16.406Z,2
2018-07-12T23:58:16.644Z,1.9
